Time;durP1;ratioP1;P1;durP2;ratioP2;P2;SDS_P1;SDS_P2;PMS_P1;PMS_P2;Temp;Humidity;BMP_temperature;BMP_pressure;BME280_temperature;BME280_humidity;BME280_pressure;Samples;Min_cycle;Max_cycle;Signal;HPM_P1;HPM_P2
2022/03/14 00:00:43;;;;;;;23.20;12.13;;;0.20;99.90;;;;;;6239064;28;20454;-76
2022/03/14 00:03:50;;;;;;;26.50;12.77;;;0.20;99.90;;;;;;6238120;28;20299;-76
2022/03/14 00:06:56;;;;;;;24.20;11.90;;;0.20;99.90;;;;;;6239273;28;20299;-76
2022/03/14 00:10:01;;;;;;;21.23;11.60;;;0.10;99.90;;;;;;6237938;28;20614;-76
2022/03/14 00:13:10;;;;;;;21.67;11.57;;;0.10;99.90;;;;;;6238416;28;20302;-76
2022/03/14 00:16:22;;;;;;;20.07;10.93;;;0.20;99.90;;;;;;6238222;28;20289;-76
2022/03/14 00:19:31;;;;;;;20.93;11.73;;;0.10;99.90;;;;;;6238476;28;20322;-76
2022/03/14 00:22:37;;;;;;;19.37;11.70;;;0.10;99.90;;;;;;6238056;28;20593;-76
2022/03/14 00:25:42;;;;;;;22.10;10.97;;;0.10;99.90;;;;;;6238424;28;20274;-76
2022/03/14 00:28:49;;;;;;;20.97;10.80;;;0.10;99.90;;;;;;6237677;28;20302;-76
2022/03/14 00:31:55;;;;;;;22.10;10.43;;;0.10;99.90;;;;;;6238217;28;20275;-76
2022/03/14 00:35:00;;;;;;;20.63;10.73;;;0.00;99.90;;;;;;6237945;28;20306;-76
2022/03/14 00:38:05;;;;;;;22.93;10.27;;;0.00;99.90;;;;;;6237908;28;20304;-76
2022/03/14 00:41:13;;;;;;;15.63;10.50;;;0.00;99.90;;;;;;6237911;28;20279;-76
2022/03/14 00:44:20;;;;;;;20.60;12.60;;;-0.10;99.90;;;;;;6237737;28;20299;-76
2022/03/14 00:47:25;;;;;;;24.70;14.30;;;-0.10;99.90;;;;;;6237339;28;20300;-76
2022/03/14 00:50:30;;;;;;;21.50;12.13;;;-0.10;99.90;;;;;;6237780;28;20488;-76
2022/03/14 00:53:36;;;;;;;21.83;11.30;;;-0.20;99.90;;;;;;6237548;28;20304;-76
2022/03/14 00:56:41;;;;;;;19.80;11.53;;;-0.20;99.90;;;;;;6237596;28;20272;-76
2022/03/14 00:59:47;;;;;;;17.63;11.67;;;-0.20;99.90;;;;;;6237384;28;20307;-76
2022/03/14 01:02:53;;;;;;;19.57;11.07;;;-0.30;99.90;;;;;;6236842;28;20296;-76
2022/03/14 01:05:58;;;;;;;18.93;11.40;;;-0.30;99.90;;;;;;6237622;28;20306;-76
2022/03/14 01:09:04;;;;;;;17.73;10.80;;;-0.30;99.90;;;;;;6236941;28;20305;-76
2022/03/14 01:12:11;;;;;;;18.77;11.00;;;-0.40;99.90;;;;;;6236516;28;20266;-76
2022/03/14 01:15:19;;;;;;;17.57;10.20;;;-0.40;99.90;;;;;;6237674;28;20274;-76
2022/03/14 01:18:25;;;;;;;22.97;11.17;;;-0.40;99.90;;;;;;6237083;28;20298;-76
2022/03/14 01:21:31;;;;;;;16.77;10.27;;;-0.50;99.90;;;;;;6236986;28;20278;-76
2022/03/14 01:24:38;;;;;;;21.63;10.90;;;-0.50;99.90;;;;;;6236966;28;20298;-76
2022/03/14 01:27:44;;;;;;;20.90;10.37;;;-0.50;99.90;;;;;;6236826;28;20295;-76
2022/03/14 01:30:50;;;;;;;21.07;10.50;;;-0.50;99.90;;;;;;6236632;28;20302;-76
2022/03/14 01:33:56;;;;;;;23.30;10.53;;;-0.50;99.90;;;;;;6236497;28;20298;-76
2022/03/14 01:37:02;;;;;;;21.60;10.40;;;-0.60;99.90;;;;;;6236872;28;20275;-75
2022/03/14 01:40:09;;;;;;;20.13;10.80;;;-0.60;99.90;;;;;;6236315;28;20285;-75
2022/03/14 01:43:17;;;;;;;21.83;11.77;;;-0.60;99.90;;;;;;6236581;28;20299;-75
2022/03/14 01:46:24;;;;;;;22.17;11.77;;;-0.60;99.90;;;;;;6236882;28;20274;-75
2022/03/14 01:49:29;;;;;;;22.17;11.57;;;-0.60;99.90;;;;;;6236672;28;20315;-75
2022/03/14 01:52:35;;;;;;;20.67;11.67;;;-0.60;99.90;;;;;;6236624;28;20302;-75
2022/03/14 01:55:40;;;;;;;20.03;11.23;;;-0.70;99.90;;;;;;6236959;28;20289;-75
2022/03/14 01:58:47;;;;;;;19.17;11.00;;;-0.60;99.90;;;;;;6236266;28;20296;-75
2022/03/14 02:01:54;;;;;;;18.10;10.50;;;-0.70;99.90;;;;;;6236678;28;20273;-75
2022/03/14 02:04:59;;;;;;;19.70;10.97;;;-0.60;99.90;;;;;;6235967;28;20289;-75
2022/03/14 02:08:07;;;;;;;16.90;10.43;;;-0.70;99.90;;;;;;6235441;28;20301;-75
2022/03/14 02:11:12;;;;;;;16.17;10.30;;;-0.60;99.90;;;;;;6240289;28;20284;-75
2022/03/14 02:14:18;;;;;;;20.07;10.00;;;-0.70;99.90;;;;;;6241170;28;20297;-75
2022/03/14 02:17:25;;;;;;;18.50;10.53;;;-0.80;99.90;;;;;;6241379;28;20292;-75
2022/03/14 02:20:31;;;;;;;18.13;10.87;;;-0.80;99.90;;;;;;6241173;28;20467;-75
2022/03/14 02:23:37;;;;;;;16.83;9.93;;;-0.80;99.90;;;;;;6240756;28;20303;-75
2022/03/14 02:26:44;;;;;;;17.87;10.10;;;-0.80;99.90;;;;;;6241449;28;20277;-74
2022/03/14 02:29:49;;;;;;;15.70;10.03;;;-0.90;99.90;;;;;;6240971;28;20296;-74
2022/03/14 02:32:54;;;;;;;19.57;10.37;;;-0.80;99.90;;;;;;6240868;28;20301;-75
2022/03/14 02:36:01;;;;;;;18.30;10.57;;;-0.80;99.90;;;;;;6241137;28;20269;-74
2022/03/14 02:39:07;;;;;;;17.10;10.13;;;-0.90;99.90;;;;;;6240529;28;20301;-75
2022/03/14 02:42:13;;;;;;;19.23;10.53;;;-0.90;99.90;;;;;;6240853;28;20276;-74
2022/03/14 02:45:18;;;;;;;16.87;10.47;;;-0.90;99.90;;;;;;6241056;28;20567;-74
2022/03/14 02:48:24;;;;;;;17.20;9.53;;;-0.90;99.90;;;;;;6240476;28;20301;-75
2022/03/14 02:51:30;;;;;;;19.63;10.20;;;-0.90;99.90;;;;;;6240839;28;20596;-74
2022/03/14 02:54:36;;;;;;;18.07;11.00;;;-0.80;99.90;;;;;;6240161;28;20298;-74
2022/03/14 02:57:41;;;;;;;17.20;9.90;;;-0.80;99.90;;;;;;6240203;28;20474;-74
2022/03/14 03:00:46;;;;;;;17.20;10.53;;;-0.80;99.90;;;;;;6240797;28;20281;-75
2022/03/14 03:03:51;;;;;;;16.93;10.07;;;-0.70;99.90;;;;;;6239736;28;20295;-74
2022/03/14 03:06:58;;;;;;;22.67;10.90;;;-0.70;99.90;;;;;;6226046;28;20297;-74
2022/03/14 03:10:04;;;;;;;17.97;10.50;;;-0.70;99.90;;;;;;6211395;28;20473;-74
2022/03/14 03:13:11;;;;;;;19.77;9.90;;;-0.70;99.90;;;;;;6191656;28;20302;-75
2022/03/14 03:16:17;;;;;;;21.40;10.40;;;-0.70;99.90;;;;;;6191739;28;20274;-75
2022/03/14 03:19:22;;;;;;;21.20;11.00;;;-0.70;99.90;;;;;;6191176;28;20302;-75
2022/03/14 03:22:29;;;;;;;24.90;11.40;;;-0.60;99.90;;;;;;6190273;28;20299;-75
2022/03/14 03:25:34;;;;;;;19.10;10.80;;;-0.60;99.90;;;;;;6191468;28;20559;-75
2022/03/14 03:28:40;;;;;;;19.97;11.63;;;-0.60;99.90;;;;;;6191097;28;20588;-75
2022/03/14 03:31:45;;;;;;;20.50;11.70;;;-0.60;99.90;;;;;;6191043;28;20594;-75
2022/03/14 03:34:51;;;;;;;22.13;11.33;;;-0.60;99.90;;;;;;6190888;28;20301;-75
2022/03/14 03:38:00;;;;;;;22.00;11.07;;;-0.60;99.90;;;;;;6190494;28;20300;-75
2022/03/14 03:41:06;;;;;;;29.43;12.43;;;-0.60;99.90;;;;;;6191011;28;20278;-75
2022/03/14 03:44:13;;;;;;;23.07;12.33;;;-0.60;99.90;;;;;;6191297;28;20298;-75
2022/03/14 03:47:18;;;;;;;20.77;11.63;;;-0.70;99.90;;;;;;6190939;28;20585;-75
2022/03/14 03:50:24;;;;;;;21.47;11.57;;;-0.70;99.90;;;;;;6191099;28;20294;-75
2022/03/14 03:53:30;;;;;;;20.47;11.67;;;-0.70;99.90;;;;;;6190519;28;20298;-75
2022/03/14 03:56:38;;;;;;;24.27;12.23;;;-0.70;99.90;;;;;;6191327;28;20280;-75
2022/03/14 03:59:43;;;;;;;26.20;12.33;;;-0.70;99.90;;;;;;6190508;28;20301;-75
2022/03/14 04:02:50;;;;;;;18.60;11.37;;;-0.70;99.90;;;;;;6193360;28;20303;-75
2022/03/14 04:05:55;;;;;;;22.50;11.63;;;-0.70;99.90;;;;;;6206374;28;20289;-75
2022/03/14 04:09:03;;;;;;;22.60;11.77;;;-0.70;99.90;;;;;;6190300;28;20295;-75
2022/03/14 04:12:11;;;;;;;20.23;12.20;;;-0.70;99.90;;;;;;6209321;28;20290;-75
2022/03/14 04:15:16;;;;;;;28.97;12.63;;;-0.70;99.90;;;;;;6214417;28;20273;-75
2022/03/14 04:18:23;;;;;;;20.87;12.30;;;-0.70;99.90;;;;;;6214167;28;20302;-75
2022/03/14 04:21:28;;;;;;;23.03;12.47;;;-0.70;99.90;;;;;;6214262;28;20278;-75
2022/03/14 04:24:37;;;;;;;23.43;13.10;;;-0.70;99.90;;;;;;6214175;28;20596;-75
2022/03/14 04:27:42;;;;;;;25.97;12.83;;;-0.80;99.90;;;;;;6213537;28;20466;-75
2022/03/14 04:30:48;;;;;;;26.00;13.73;;;-0.80;99.90;;;;;;6214467;28;20281;-75
2022/03/14 04:33:53;;;;;;;26.53;13.67;;;-0.80;99.90;;;;;;6213455;28;20572;-75
2022/03/14 04:36:58;;;;;;;25.23;13.30;;;-0.90;99.90;;;;;;6214469;28;20277;-75
2022/03/14 04:40:08;;;;;;;21.50;13.10;;;-0.90;99.90;;;;;;6213575;28;20278;-76
2022/03/14 04:43:14;;;;;;;24.53;13.23;;;-0.90;99.90;;;;;;6213472;28;20303;-75
2022/03/14 04:46:19;;;;;;;24.40;13.33;;;-0.90;99.90;;;;;;6214173;28;20277;-75
2022/03/14 04:49:25;;;;;;;25.07;12.57;;;-1.00;99.90;;;;;;6213752;28;20291;-75
2022/03/14 04:52:31;;;;;;;23.53;12.90;;;-1.00;99.90;;;;;;6213478;28;20308;-75
2022/03/14 04:55:38;;;;;;;22.13;13.27;;;-1.10;99.90;;;;;;6213820;28;20278;-75
2022/03/14 04:58:43;;;;;;;20.80;11.90;;;-1.10;99.90;;;;;;6213041;28;20474;-75
2022/03/14 05:01:48;;;;;;;25.80;13.17;;;-1.10;99.90;;;;;;6213530;28;20288;-75
2022/03/14 05:04:54;;;;;;;22.33;12.53;;;-1.10;99.90;;;;;;6213259;28;20424;-76
2022/03/14 05:07:59;;;;;;;22.73;13.07;;;-1.10;99.90;;;;;;6212835;28;20302;-76
2022/03/14 05:11:09;;;;;;;25.93;12.30;;;-1.10;99.90;;;;;;6199947;28;20268;-76
2022/03/14 05:14:16;;;;;;;23.83;12.20;;;-1.10;99.90;;;;;;6188639;28;20301;-75
2022/03/14 05:17:21;;;;;;;18.00;12.10;;;-1.10;99.90;;;;;;6188583;28;20465;-76
2022/03/14 05:20:27;;;;;;;23.60;12.37;;;-1.10;99.90;;;;;;6189005;28;20284;-75
2022/03/14 05:23:32;;;;;;;23.60;12.83;;;-1.10;99.90;;;;;;6188843;28;20297;-76
2022/03/14 05:26:39;;;;;;;30.00;13.53;;;-1.10;99.90;;;;;;6189189;28;20574;-76
2022/03/14 05:29:44;;;;;;;27.50;12.77;;;-1.10;99.90;;;;;;6188432;28;20306;-75
2022/03/14 05:32:50;;;;;;;22.63;12.10;;;-1.00;99.90;;;;;;6188279;28;20293;-75
2022/03/14 05:35:55;;;;;;;24.90;12.93;;;-1.00;99.90;;;;;;6189525;28;20273;-75
2022/03/14 05:39:01;;;;;;;22.63;12.57;;;-1.00;99.90;;;;;;6188581;28;20306;-75
2022/03/14 05:42:08;;;;;;;26.30;12.60;;;-1.00;99.90;;;;;;6188586;28;20277;-76
2022/03/14 05:45:15;;;;;;;25.93;12.37;;;-1.00;99.90;;;;;;6187892;28;20468;-75
2022/03/14 05:48:20;;;;;;;28.67;13.30;;;-1.00;99.90;;;;;;6187725;28;20297;-75
2022/03/14 05:51:25;;;;;;;26.80;12.60;;;-1.00;99.90;;;;;;6188680;28;20273;-75
2022/03/14 05:54:34;;;;;;;25.70;12.60;;;-1.00;99.90;;;;;;6188022;28;20298;-76
2022/03/14 05:57:42;;;;;;;26.40;12.60;;;-0.90;99.90;;;;;;6187842;28;20297;-75
2022/03/14 06:00:48;;;;;;;24.80;12.33;;;-0.90;99.90;;;;;;6188055;28;20467;-75
2022/03/14 06:03:53;;;;;;;22.77;11.60;;;-0.90;99.90;;;;;;6187802;28;20477;-76
2022/03/14 06:07:00;;;;;;;24.03;11.83;;;-0.80;99.90;;;;;;6216186;28;20303;-76
2022/03/14 06:10:08;;;;;;;24.47;11.67;;;-0.90;99.90;;;;;;6235858;28;20276;-76
2022/03/14 06:13:17;;;;;;;23.40;11.70;;;-0.90;99.90;;;;;;6236301;28;20452;-76
2022/03/14 06:16:24;;;;;;;25.23;11.60;;;-0.80;99.90;;;;;;6236824;28;20273;-75
2022/03/14 06:19:30;;;;;;;24.50;11.20;;;-0.80;99.90;;;;;;6236369;28;20292;-75
2022/03/14 06:22:39;;;;;;;29.80;12.20;;;-0.70;99.90;;;;;;6236242;28;20288;-74
2022/03/14 06:25:44;;;;;;;19.57;11.17;;;-0.70;99.90;;;;;;6236314;28;20278;-74
2022/03/14 06:28:51;;;;;;;23.40;11.70;;;-0.70;99.90;;;;;;6236690;28;20297;-74
2022/03/14 06:31:56;;;;;;;20.27;10.90;;;-0.60;99.90;;;;;;6237015;28;20269;-75
2022/03/14 06:35:03;;;;;;;22.47;11.90;;;-0.50;99.90;;;;;;6235681;28;20296;-75
2022/03/14 06:38:10;;;;;;;21.07;11.77;;;-0.50;99.90;;;;;;6236109;28;20333;-75
2022/03/14 06:41:15;;;;;;;25.43;12.43;;;-0.50;99.90;;;;;;6236396;28;20452;-75
2022/03/14 06:44:25;;;;;;;22.07;12.20;;;-0.40;99.90;;;;;;6236065;28;20594;-74
2022/03/14 06:47:34;;;;;;;29.97;11.97;;;-0.40;99.90;;;;;;6237112;28;20300;-75
2022/03/14 06:50:39;;;;;;;28.10;11.90;;;-0.20;99.90;;;;;;6237692;28;20274;-74
2022/03/14 06:53:44;;;;;;;22.53;10.93;;;-0.20;99.90;;;;;;6236388;28;20300;-74
2022/03/14 06:56:50;;;;;;;22.70;11.27;;;-0.10;99.90;;;;;;6240606;28;20274;-75
2022/03/14 06:59:57;;;;;;;29.63;10.93;;;0.00;99.90;;;;;;6240530;28;20393;-75
2022/03/14 07:03:02;;;;;;;28.27;10.63;;;0.10;99.90;;;;;;6240516;28;20300;-75
2022/03/14 07:06:07;;;;;;;27.23;10.17;;;0.20;99.90;;;;;;6240089;28;20322;-76
2022/03/14 07:09:13;;;;;;;27.50;9.93;;;0.30;99.90;;;;;;6238750;28;20309;-74
2022/03/14 07:12:18;;;;;;;20.50;10.67;;;0.30;99.90;;;;;;6239835;28;20267;-76
2022/03/14 07:15:26;;;;;;;27.87;10.27;;;0.30;99.90;;;;;;6240464;28;20604;-74
2022/03/14 07:18:34;;;;;;;23.80;10.80;;;0.40;99.90;;;;;;6240562;28;20298;-75
2022/03/14 07:21:40;;;;;;;18.50;10.23;;;0.50;99.90;;;;;;6240663;28;20273;-74
2022/03/14 07:24:46;;;;;;;26.57;10.30;;;0.50;99.90;;;;;;6239811;28;20302;-75
2022/03/14 07:27:51;;;;;;;16.27;10.10;;;0.60;99.90;;;;;;6239788;28;20305;-74
2022/03/14 07:30:57;;;;;;;21.50;10.33;;;0.60;99.90;;;;;;6240156;28;20271;-75
2022/03/14 07:34:06;;;;;;;24.07;10.07;;;0.60;99.90;;;;;;6240180;28;20472;-75
2022/03/14 07:37:12;;;;;;;28.13;10.43;;;0.70;99.90;;;;;;6239594;28;20273;-75
2022/03/14 07:40:17;;;;;;;21.03;10.57;;;0.80;99.90;;;;;;6240053;28;20466;-75
2022/03/14 07:43:28;;;;;;;24.70;10.33;;;0.80;99.90;;;;;;6240008;28;20303;-75
2022/03/14 07:46:35;;;;;;;18.00;9.03;;;0.80;99.90;;;;;;6240591;28;20286;-75
2022/03/14 07:49:40;;;;;;;22.03;9.40;;;0.90;99.90;;;;;;6240146;28;20290;-75
2022/03/14 07:52:47;;;;;;;25.43;10.03;;;1.00;99.90;;;;;;6239494;28;20291;-75
2022/03/14 07:55:52;;;;;;;21.57;8.37;;;1.10;99.90;;;;;;6240478;28;20292;-75
2022/03/14 07:58:58;;;;;;;24.33;8.63;;;1.10;99.90;;;;;;6239547;28;20313;-75
2022/03/14 08:02:06;;;;;;;18.67;8.60;;;1.20;99.90;;;;;;6239734;28;20276;-76
2022/03/14 08:05:14;;;;;;;21.63;7.87;;;1.20;99.90;;;;;;6239792;28;20286;-75
2022/03/14 08:08:20;;;;;;;26.87;8.50;;;1.30;99.90;;;;;;6189400;28;20304;-75
2022/03/14 08:11:28;;;;;;;23.37;7.57;;;1.50;99.90;;;;;;6190811;28;20456;-75
2022/03/14 08:14:34;;;;;;;12.23;6.13;;;1.50;99.90;;;;;;6189739;28;20309;-75
2022/03/14 08:17:40;;;;;;;14.93;6.33;;;1.70;98.50;;;;;;6190495;28;20294;-75
2022/03/14 08:20:47;;;;;;;10.93;6.27;;;1.70;98.40;;;;;;6190548;28;20426;-75
2022/03/14 08:23:53;;;;;;;25.87;6.03;;;1.80;97.10;;;;;;6189725;28;20312;-75
2022/03/14 08:26:58;;;;;;;17.83;6.20;;;1.90;96.80;;;;;;6190500;28;20284;-77
2022/03/14 08:30:05;;;;;;;9.07;5.33;;;2.00;95.50;;;;;;6189453;28;20280;-75
2022/03/14 08:33:17;;;;;;;15.83;5.43;;;2.10;94.50;;;;;;6189880;28;20301;-76
2022/03/14 08:36:23;;;;;;;24.93;8.03;;;2.20;92.80;;;;;;6190247;28;20297;-76
2022/03/14 08:39:31;;;;;;;14.10;5.40;;;2.20;92.70;;;;;;6189720;28;20301;-76
2022/03/14 08:42:38;;;;;;;14.47;4.90;;;2.30;93.30;;;;;;6189359;28;20535;-76
2022/03/14 08:45:43;;;;;;;21.67;5.33;;;2.40;91.30;;;;;;6189739;28;20278;-77
2022/03/14 08:48:51;;;;;;;15.13;5.27;;;2.40;90.20;;;;;;6189445;28;20304;-76
2022/03/14 08:51:57;;;;;;;16.90;4.57;;;2.50;91.70;;;;;;6190146;28;20277;-76
2022/03/14 08:55:03;;;;;;;9.97;5.27;;;2.70;86.70;;;;;;6188873;28;20474;-76
2022/03/14 08:58:09;;;;;;;18.57;4.70;;;2.80;80.50;;;;;;6188904;28;20300;-76
2022/03/14 09:01:15;;;;;;;12.63;5.40;;;3.00;76.40;;;;;;6188986;28;20277;-76
2022/03/14 09:04:21;;;;;;;13.83;5.10;;;3.00;80.30;;;;;;6188953;28;20448;-76
2022/03/14 09:07:28;;;;;;;13.80;5.07;;;3.00;79.30;;;;;;6206244;28;20296;-76
2022/03/14 09:10:36;;;;;;;9.23;4.93;;;3.10;79.90;;;;;;6213393;28;20278;-76
2022/03/14 09:13:41;;;;;;;41.47;7.60;;;3.20;85.30;;;;;;6213211;28;20301;-76
2022/03/14 09:16:47;;;;;;;14.50;5.70;;;3.30;76.80;;;;;;6213216;28;20294;-76
2022/03/14 09:19:54;;;;;;;9.03;5.77;;;3.60;78.80;;;;;;6212972;28;20296;-76
2022/03/14 09:22:59;;;;;;;12.37;5.40;;;3.60;78.50;;;;;;6212645;28;20308;-76
2022/03/14 09:26:05;;;;;;;18.73;5.87;;;3.60;79.60;;;;;;6213577;28;20279;-76
2022/03/14 09:29:12;;;;;;;24.00;5.83;;;3.70;78.90;;;;;;6212486;28;20297;-76
2022/03/14 09:32:17;;;;;;;13.73;5.63;;;3.70;80.70;;;;;;6212996;28;20274;-76
2022/03/14 09:35:25;;;;;;;14.97;5.73;;;3.80;81.30;;;;;;6213107;28;20556;-76
2022/03/14 09:38:31;;;;;;;10.00;5.27;;;3.90;78.20;;;;;;6212419;28;20297;-76
2022/03/14 09:41:38;;;;;;;17.97;5.57;;;3.90;79.60;;;;;;6213318;28;20293;-76
2022/03/14 09:44:44;;;;;;;11.43;5.30;;;4.00;75.70;;;;;;6212781;28;20302;-76
2022/03/14 09:47:51;;;;;;;11.20;4.93;;;4.10;75.00;;;;;;6212420;28;20298;-76
2022/03/14 09:50:59;;;;;;;13.27;4.93;;;4.20;71.70;;;;;;6212915;28;20273;-76
2022/03/14 09:54:05;;;;;;;9.67;5.20;;;4.40;69.20;;;;;;6212649;28;20430;-76
2022/03/14 09:57:10;;;;;;;15.67;5.17;;;4.60;66.60;;;;;;6212511;28;20292;-76
2022/03/14 10:00:18;;;;;;;11.07;5.80;;;4.60;67.30;;;;;;6213220;28;20272;-76
2022/03/14 10:03:24;;;;;;;11.60;5.67;;;4.70;66.50;;;;;;6212436;28;20295;-76
2022/03/14 10:06:31;;;;;;;15.07;5.90;;;4.70;68.70;;;;;;6212846;28;20309;-76
2022/03/14 10:09:37;;;;;;;18.17;6.23;;;4.80;68.40;;;;;;6210647;28;20309;-76
2022/03/14 10:12:43;;;;;;;12.80;5.80;;;4.90;70.30;;;;;;6187852;28;20406;-75
2022/03/14 10:15:49;;;;;;;16.47;6.77;;;4.90;72.90;;;;;;6188047;28;20444;-75
2022/03/14 10:18:56;;;;;;;13.60;6.67;;;5.10;72.70;;;;;;6188380;28;20607;-75
2022/03/14 10:22:15;;;;;;;18.80;7.13;;;5.40;69.30;;;;;;6188495;28;20277;-75
2022/03/14 10:25:21;;;;;;;23.60;8.43;;;5.50;68.00;;;;;;6188932;28;20282;-75
2022/03/14 10:28:30;;;;;;;16.87;8.73;;;5.50;68.70;;;;;;6188260;28;20308;-75
2022/03/14 10:31:56;;;;;;;22.60;8.87;;;5.70;68.50;;;;;;6191850;28;20518;-76
2022/03/14 10:35:04;;;;;;;18.87;8.77;;;6.00;65.70;;;;;;6192402;28;20278;-76
2022/03/14 10:38:16;;;;;;;18.13;8.67;;;6.00;65.80;;;;;;6192552;28;20596;-76
2022/03/14 10:41:21;;;;;;;18.77;8.57;;;6.00;68.10;;;;;;6192741;28;20280;-76
2022/03/14 10:44:47;;;;;;;23.97;9.13;;;6.10;67.00;;;;;;6192316;28;20595;-75
2022/03/14 10:47:57;;;;;;;17.73;8.70;;;6.10;67.40;;;;;;6192417;28;20299;-76
2022/03/14 10:51:04;;;;;;;21.17;8.73;;;6.20;67.70;;;;;;6192923;28;20277;-76
2022/03/14 10:54:17;;;;;;;23.70;9.23;;;6.20;66.80;;;;;;6192232;28;20304;-77
2022/03/14 10:57:26;;;;;;;21.53;9.83;;;6.40;65.80;;;;;;6191569;28;20305;-76
2022/03/14 11:00:51;;;;;;;19.70;9.40;;;6.40;66.10;;;;;;6192015;28;20275;-76
2022/03/14 11:03:59;;;;;;;23.40;10.10;;;6.40;64.10;;;;;;6191161;28;20299;-76
2022/03/14 11:07:07;;;;;;;17.67;10.53;;;6.60;62.60;;;;;;6220979;28;20310;-76
2022/03/14 11:10:14;;;;;;;17.20;10.47;;;6.90;61.60;;;;;;6240812;28;20268;-76
2022/03/14 11:13:19;;;;;;;18.13;11.57;;;6.80;61.80;;;;;;6240087;28;20303;-76
2022/03/14 11:16:27;;;;;;;21.87;11.37;;;7.00;61.00;;;;;;6240320;28;20273;-76
2022/03/14 11:19:32;;;;;;;27.13;11.87;;;7.00;63.40;;;;;;6240068;28;20303;-76
2022/03/14 11:22:38;;;;;;;28.87;12.63;;;7.10;61.40;;;;;;6240021;28;20291;-76
2022/03/14 11:25:45;;;;;;;26.00;12.47;;;7.30;59.90;;;;;;6240041;28;20562;-75
2022/03/14 11:28:52;;;;;;;21.60;12.77;;;7.30;59.90;;;;;;6239297;28;20294;-75
2022/03/14 11:31:57;;;;;;;26.47;14.27;;;7.70;57.20;;;;;;6239813;28;20292;-76
2022/03/14 11:35:03;;;;;;;22.67;12.77;;;8.00;55.00;;;;;;6239001;28;20430;-76
2022/03/14 11:38:12;;;;;;;27.57;14.03;;;8.00;55.00;;;;;;6239212;28;20578;-76
2022/03/14 11:41:19;;;;;;;25.87;14.13;;;7.90;55.30;;;;;;6239481;28;20271;-77
2022/03/14 11:44:26;;;;;;;31.47;16.20;;;7.90;55.20;;;;;;6221984;28;20319;-77
2022/03/14 11:47:31;;;;;;;28.37;15.73;;;8.10;54.40;;;;;;6238698;28;20330;-77
2022/03/14 11:50:49;;;;;;;39.80;16.73;;;8.20;54.40;;;;;;6239273;28;20275;-77
2022/03/14 11:53:54;;;;;;;28.97;16.63;;;8.10;54.90;;;;;;6239249;28;20300;-77
2022/03/14 11:57:00;;;;;;;29.23;17.00;;;8.20;54.00;;;;;;6239387;28;20271;-76
2022/03/14 12:00:35;;;;;;;35.27;17.37;;;8.30;53.30;;;;;;6238701;28;20463;-75
2022/03/14 12:03:46;;;;;;;35.23;17.10;;;8.20;54.20;;;;;;6239008;28;20300;-77
2022/03/14 12:07:13;;;;;;;39.23;17.93;;;8.40;53.30;;;;;;6239494;28;20300;-76
2022/03/14 12:10:26;;;;;;;35.00;18.20;;;8.40;53.60;;;;;;6237955;28;20276;-76
2022/03/14 12:13:43;;;;;;;37.80;17.67;;;8.30;54.70;;;;;;6238732;28;20478;-76
2022/03/14 12:16:49;;;;;;;34.73;18.27;;;8.40;53.90;;;;;;6238574;28;20277;-76
2022/03/14 12:19:57;;;;;;;34.10;17.03;;;8.40;54.20;;;;;;6238275;28;20300;-75
2022/03/14 12:23:21;;;;;;;34.47;18.00;;;8.50;53.60;;;;;;6238534;28;20301;-76
2022/03/14 12:26:26;;;;;;;34.40;17.43;;;8.50;54.40;;;;;;6238888;28;20273;-76
2022/03/14 12:29:36;;;;;;;36.00;16.43;;;8.50;54.40;;;;;;6238300;28;20464;-77
2022/03/14 12:32:55;;;;;;;31.87;15.83;;;8.50;54.80;;;;;;6238259;28;20295;-76
2022/03/14 12:36:41;;;;;;;27.53;15.97;;;8.60;54.10;;;;;;6238623;28;20273;-76
2022/03/14 12:39:46;;;;;;;32.90;16.83;;;8.50;54.50;;;;;;6238547;28;20300;-76
2022/03/14 12:42:54;;;;;;;33.47;16.50;;;8.60;54.80;;;;;;6237343;28;20311;-76
2022/03/14 12:46:02;;;;;;;31.20;16.07;;;8.70;54.50;;;;;;6238658;28;20451;-76
2022/03/14 12:49:08;;;;;;;32.27;17.10;;;8.60;55.20;;;;;;6238181;28;20472;-76
2022/03/14 12:52:14;;;;;;;32.07;17.17;;;8.50;55.60;;;;;;6237932;28;20276;-76
2022/03/14 12:55:22;;;;;;;34.20;16.07;;;8.70;55.60;;;;;;6237949;28;20268;-76
2022/03/14 12:58:29;;;;;;;44.67;16.53;;;8.70;55.80;;;;;;6237537;28;20304;-76
2022/03/14 13:01:40;;;;;;;35.83;16.13;;;8.70;55.40;;;;;;6238127;28;20440;-76
2022/03/14 13:04:55;;;;;;;28.13;15.60;;;8.80;55.20;;;;;;6237816;28;20296;-76
2022/03/14 13:08:02;;;;;;;27.52;14.40;;;8.70;55.80;;;;;;6236883;28;20312;-77
2022/03/14 13:11:08;;;;;;;33.50;15.07;;;8.90;55.30;;;;;;6237525;28;20579;-76
2022/03/14 13:14:17;;;;;;;23.43;13.80;;;8.90;55.40;;;;;;6237601;28;20480;-77
2022/03/14 13:17:27;;;;;;;28.80;14.70;;;9.00;55.10;;;;;;6237389;28;20297;-77
2022/03/14 13:20:33;;;;;;;27.97;14.13;;;9.00;55.30;;;;;;6236937;28;20288;-76
2022/03/14 13:23:38;;;;;;;27.58;15.00;;;8.90;56.20;;;;;;6236933;28;20564;-76
2022/03/14 13:26:47;;;;;;;26.60;13.37;;;8.70;57.50;;;;;;6237582;28;20272;-76
2022/03/14 13:29:53;;;;;;;30.80;14.20;;;8.70;58.30;;;;;;6236903;28;20304;-77
2022/03/14 13:32:59;;;;;;;25.20;13.77;;;8.80;57.80;;;;;;6237149;28;20292;-76
2022/03/14 13:36:07;;;;;;;27.35;14.38;;;8.80;58.60;;;;;;6237169;28;20452;-77
2022/03/14 13:39:15;;;;;;;31.95;15.07;;;8.70;59.60;;;;;;6236845;28;20304;-76
2022/03/14 13:42:20;;;;;;;25.57;13.93;;;8.80;59.70;;;;;;6236664;28;20272;-77
2022/03/14 13:45:26;;;;;;;32.10;15.43;;;8.80;59.60;;;;;;6237810;28;20276;-76
2022/03/14 13:48:32;;;;;;;29.42;14.85;;;8.80;60.80;;;;;;6236710;28;20295;-76
2022/03/14 13:51:41;;;;;;;24.90;14.68;;;8.90;59.80;;;;;;6236997;28;20276;-76
2022/03/14 13:54:49;;;;;;;39.30;16.17;;;8.90;60.70;;;;;;6236303;28;20295;-76
2022/03/14 13:58:00;;;;;;;33.70;17.27;;;9.00;60.50;;;;;;6236446;28;20355;-76
2022/03/14 14:01:05;;;;;;;34.60;16.50;;;9.00;61.30;;;;;;6236676;28;20292;-76
2022/03/14 14:04:19;;;;;;;34.55;16.90;;;8.90;61.80;;;;;;6236021;28;20291;-76
2022/03/14 14:07:27;;;;;;;32.35;16.92;;;8.70;67.40;;;;;;6235816;28;20297;-77
2022/03/14 14:10:38;;;;;;;38.67;16.67;;;8.80;69.90;;;;;;6237177;28;20268;-76
2022/03/14 14:13:47;;;;;;;29.48;16.08;;;8.70;69.30;;;;;;6236490;28;20296;-76
2022/03/14 14:16:53;;;;;;;34.33;17.35;;;8.60;67.80;;;;;;6236951;28;20272;-76
2022/03/14 14:20:15;;;;;;;34.33;17.63;;;8.70;69.20;;;;;;6236035;28;20548;-77
2022/03/14 14:23:22;;;;;;;32.33;17.38;;;8.60;70.40;;;;;;6235988;28;20297;-76
2022/03/14 14:26:40;;;;;;;28.77;16.33;;;9.10;68.30;;;;;;6235382;28;20272;-77
2022/03/14 14:29:46;;;;;;;37.25;17.77;;;10.30;59.80;;;;;;6236116;28;20307;-77
2022/03/14 14:32:51;;;;;;;31.13;18.13;;;10.10;57.40;;;;;;6235871;28;20300;-77
2022/03/14 14:35:58;;;;;;;35.80;18.63;;;9.50;58.80;;;;;;6236863;28;20571;-76
2022/03/14 14:39:04;;;;;;;42.92;20.33;;;9.00;64.60;;;;;;6236448;28;20591;-77
2022/03/14 14:42:14;;;;;;;51.00;22.42;;;8.90;63.80;;;;;;6236016;28;20292;-76
2022/03/14 14:45:20;;;;;;;46.33;23.30;;;8.90;63.60;;;;;;6236353;28;20555;-77
2022/03/14 14:48:25;;;;;;;47.30;25.33;;;8.70;66.30;;;;;;6235931;28;20296;-77
2022/03/14 14:51:34;;;;;;;47.22;25.98;;;8.50;68.70;;;;;;6236285;28;20564;-77
2022/03/14 14:54:40;;;;;;;47.75;25.08;;;8.50;69.30;;;;;;6235852;28;20296;-76
2022/03/14 14:58:05;;;;;;;47.35;24.02;;;8.60;68.60;;;;;;6235424;28;20302;-76
2022/03/14 15:01:18;;;;;;;45.10;24.85;;;8.30;72.90;;;;;;6235366;28;20288;-76
2022/03/14 15:04:24;;;;;;;44.93;24.03;;;8.20;74.10;;;;;;6235844;28;20292;-76
2022/03/14 15:07:40;;;;;;;55.83;24.00;;;8.20;72.80;;;;;;6235586;28;20292;-76
2022/03/14 15:10:46;;;;;;;46.13;21.60;;;8.10;75.30;;;;;;6236141;28;20276;-76
2022/03/14 15:13:52;;;;;;;46.83;21.52;;;8.10;73.70;;;;;;6235285;28;20293;-77
2022/03/14 15:16:57;;;;;;;37.83;20.77;;;8.00;76.40;;;;;;6237857;28;20272;-76
2022/03/14 15:20:02;;;;;;;40.97;21.67;;;7.90;77.60;;;;;;6239442;28;20299;-77
2022/03/14 15:23:16;;;;;;;39.83;21.17;;;7.80;81.20;;;;;;6239703;28;20476;-76
2022/03/14 15:26:23;;;;;;;40.90;22.33;;;7.60;81.40;;;;;;6239927;28;20275;-77
2022/03/14 15:29:30;;;;;;;50.03;22.58;;;7.70;80.60;;;;;;6239307;28;20296;-76
2022/03/14 15:32:35;;;;;;;48.58;23.17;;;7.70;82.90;;;;;;6239914;28;20308;-77
2022/03/14 15:35:40;;;;;;;43.87;22.00;;;7.40;89.20;;;;;;6240356;28;20268;-76
2022/03/14 15:38:47;;;;;;;45.70;22.60;;;7.40;86.50;;;;;;6239148;28;20293;-76
2022/03/14 15:41:54;;;;;;;36.28;21.58;;;7.40;87.30;;;;;;6239862;28;20288;-76
2022/03/14 15:45:00;;;;;;;38.20;20.90;;;7.30;88.20;;;;;;6239524;28;20301;-77
2022/03/14 15:48:06;;;;;;;40.00;21.63;;;7.30;89.40;;;;;;6239770;28;20296;-76
2022/03/14 15:51:15;;;;;;;41.97;21.07;;;7.50;87.60;;;;;;6239650;28;20269;-77
2022/03/14 15:54:22;;;;;;;35.00;21.53;;;7.40;87.90;;;;;;6238517;28;20308;-76
2022/03/14 15:57:28;;;;;;;44.50;22.07;;;7.30;89.00;;;;;;6238759;28;20510;-77
2022/03/14 16:00:33;;;;;;;39.17;21.23;;;7.20;90.90;;;;;;6238984;28;20347;-75